sensor_id;sensor_type;location;lat;lon;timestamp;P1;durP1;ratioP1;P2;durP2;ratioP2
42478;SDS011;28110;47.080;9.476;2022-12-11T00:00:48;13.55;;;7.00;;
42478;SDS011;28110;47.080;9.476;2022-12-11T00:03:17;13.77;;;6.87;;
42478;SDS011;28110;47.080;9.476;2022-12-11T00:05:43;14.35;;;7.35;;
42478;SDS011;28110;47.080;9.476;2022-12-11T00:08:09;13.50;;;7.28;;
42478;SDS011;28110;47.080;9.476;2022-12-11T00:10:35;15.23;;;7.82;;
42478;SDS011;28110;47.080;9.476;2022-12-11T00:13:01;12.73;;;6.80;;
42478;SDS011;28110;47.080;9.476;2022-12-11T00:15:27;12.15;;;6.22;;
42478;SDS011;28110;47.080;9.476;2022-12-11T00:17:53;13.07;;;6.93;;
42478;SDS011;28110;47.080;9.476;2022-12-11T00:20:19;12.77;;;6.50;;
42478;SDS011;28110;47.080;9.476;2022-12-11T00:22:45;11.32;;;6.10;;
42478;SDS011;28110;47.080;9.476;2022-12-11T00:25:10;12.43;;;6.73;;
42478;SDS011;28110;47.080;9.476;2022-12-11T00:27:36;10.20;;;6.00;;
42478;SDS011;28110;47.080;9.476;2022-12-11T00:30:02;10.90;;;6.03;;
42478;SDS011;28110;47.080;9.476;2022-12-11T00:32:28;11.73;;;6.20;;
42478;SDS011;28110;47.080;9.476;2022-12-11T00:34:54;12.70;;;6.05;;
42478;SDS011;28110;47.080;9.476;2022-12-11T00:37:19;11.80;;;6.53;;
42478;SDS011;28110;47.080;9.476;2022-12-11T00:39:45;14.65;;;6.80;;
42478;SDS011;28110;47.080;9.476;2022-12-11T00:42:10;11.30;;;5.70;;
42478;SDS011;28110;47.080;9.476;2022-12-11T00:44:36;12.37;;;6.50;;
42478;SDS011;28110;47.080;9.476;2022-12-11T00:47:02;9.63;;;5.50;;
42478;SDS011;28110;47.080;9.476;2022-12-11T00:49:27;11.40;;;6.27;;
42478;SDS011;28110;47.080;9.476;2022-12-11T00:51:53;11.50;;;6.30;;
42478;SDS011;28110;47.080;9.476;2022-12-11T00:54:18;12.07;;;6.27;;
42478;SDS011;28110;47.080;9.476;2022-12-11T00:56:44;15.80;;;6.80;;
42478;SDS011;28110;47.080;9.476;2022-12-11T00:59:10;12.20;;;6.97;;
42478;SDS011;28110;47.080;9.476;2022-12-11T01:01:36;11.73;;;6.33;;
42478;SDS011;28110;47.080;9.476;2022-12-11T01:04:02;10.30;;;6.03;;
42478;SDS011;28110;47.080;9.476;2022-12-11T01:06:28;13.07;;;6.72;;
42478;SDS011;28110;47.080;9.476;2022-12-11T01:08:53;13.40;;;7.27;;
42478;SDS011;28110;47.080;9.476;2022-12-11T01:11:38;13.35;;;6.78;;
42478;SDS011;28110;47.080;9.476;2022-12-11T01:14:05;10.85;;;5.43;;
42478;SDS011;28110;47.080;9.476;2022-12-11T01:16:31;9.27;;;4.80;;
42478;SDS011;28110;47.080;9.476;2022-12-11T01:18:57;9.93;;;5.53;;
42478;SDS011;28110;47.080;9.476;2022-12-11T01:21:23;11.02;;;6.18;;
42478;SDS011;28110;47.080;9.476;2022-12-11T01:23:49;12.43;;;6.40;;
42478;SDS011;28110;47.080;9.476;2022-12-11T01:26:15;11.25;;;6.03;;
42478;SDS011;28110;47.080;9.476;2022-12-11T01:28:41;11.18;;;5.90;;
42478;SDS011;28110;47.080;9.476;2022-12-11T01:31:08;11.02;;;6.18;;
42478;SDS011;28110;47.080;9.476;2022-12-11T01:33:35;10.67;;;5.80;;
42478;SDS011;28110;47.080;9.476;2022-12-11T01:36:00;11.60;;;6.13;;
42478;SDS011;28110;47.080;9.476;2022-12-11T01:38:31;11.55;;;5.55;;
42478;SDS011;28110;47.080;9.476;2022-12-11T01:40:57;10.70;;;5.87;;
42478;SDS011;28110;47.080;9.476;2022-12-11T01:43:22;9.90;;;5.50;;
42478;SDS011;28110;47.080;9.476;2022-12-11T01:45:48;10.27;;;5.50;;
42478;SDS011;28110;47.080;9.476;2022-12-11T01:48:18;9.50;;;5.67;;
42478;SDS011;28110;47.080;9.476;2022-12-11T01:50:48;9.75;;;5.03;;
42478;SDS011;28110;47.080;9.476;2022-12-11T01:53:17;9.75;;;5.53;;
42478;SDS011;28110;47.080;9.476;2022-12-11T01:55:47;11.85;;;6.18;;
42478;SDS011;28110;47.080;9.476;2022-12-11T01:58:15;14.17;;;6.50;;
42478;SDS011;28110;47.080;9.476;2022-12-11T02:00:43;11.20;;;5.50;;
42478;SDS011;28110;47.080;9.476;2022-12-11T02:03:09;13.25;;;6.65;;
42478;SDS011;28110;47.080;9.476;2022-12-11T02:05:35;12.27;;;6.80;;
42478;SDS011;28110;47.080;9.476;2022-12-11T02:08:00;12.20;;;7.47;;
42478;SDS011;28110;47.080;9.476;2022-12-11T02:10:37;14.48;;;6.70;;
42478;SDS011;28110;47.080;9.476;2022-12-11T02:13:26;12.40;;;6.03;;
42478;SDS011;28110;47.080;9.476;2022-12-11T02:16:06;14.23;;;7.10;;
42478;SDS011;28110;47.080;9.476;2022-12-11T02:18:45;15.75;;;7.40;;
42478;SDS011;28110;47.080;9.476;2022-12-11T02:29:43;11.63;;;6.97;;
42478;SDS011;28110;47.080;9.476;2022-12-11T02:32:16;12.82;;;6.90;;
42478;SDS011;28110;47.080;9.476;2022-12-11T02:37:42;14.45;;;7.45;;
42478;SDS011;28110;47.080;9.476;2022-12-11T02:40:11;13.50;;;7.57;;
42478;SDS011;28110;47.080;9.476;2022-12-11T02:42:39;14.03;;;7.70;;
42478;SDS011;28110;47.080;9.476;2022-12-11T02:45:07;13.25;;;6.53;;
42478;SDS011;28110;47.080;9.476;2022-12-11T02:47:34;15.93;;;7.90;;
42478;SDS011;28110;47.080;9.476;2022-12-11T02:50:02;13.50;;;7.25;;
42478;SDS011;28110;47.080;9.476;2022-12-11T02:52:38;13.90;;;7.63;;
42478;SDS011;28110;47.080;9.476;2022-12-11T02:55:05;16.83;;;8.13;;
42478;SDS011;28110;47.080;9.476;2022-12-11T02:57:33;18.42;;;8.88;;
42478;SDS011;28110;47.080;9.476;2022-12-11T03:00:04;21.10;;;8.52;;
42478;SDS011;28110;47.080;9.476;2022-12-11T03:02:32;20.83;;;10.43;;
42478;SDS011;28110;47.080;9.476;2022-12-11T03:04:58;17.40;;;8.73;;
42478;SDS011;28110;47.080;9.476;2022-12-11T03:07:25;14.05;;;6.88;;
42478;SDS011;28110;47.080;9.476;2022-12-11T03:09:53;14.60;;;7.07;;
42478;SDS011;28110;47.080;9.476;2022-12-11T03:12:20;13.87;;;7.30;;
42478;SDS011;28110;47.080;9.476;2022-12-11T03:14:49;13.10;;;6.88;;
42478;SDS011;28110;47.080;9.476;2022-12-11T03:19:52;16.63;;;7.17;;
42478;SDS011;28110;47.080;9.476;2022-12-11T03:25:00;14.07;;;7.50;;
42478;SDS011;28110;47.080;9.476;2022-12-11T03:27:37;14.63;;;7.70;;
42478;SDS011;28110;47.080;9.476;2022-12-11T03:30:15;13.73;;;7.00;;
42478;SDS011;28110;47.080;9.476;2022-12-11T03:32:49;12.83;;;5.93;;
42478;SDS011;28110;47.080;9.476;2022-12-11T03:38:15;10.77;;;6.05;;
42478;SDS011;28110;47.080;9.476;2022-12-11T03:40:47;12.70;;;6.15;;
42478;SDS011;28110;47.080;9.476;2022-12-11T03:43:15;12.75;;;6.45;;
42478;SDS011;28110;47.080;9.476;2022-12-11T03:45:41;12.93;;;6.13;;
42478;SDS011;28110;47.080;9.476;2022-12-11T03:48:09;12.95;;;6.45;;
42478;SDS011;28110;47.080;9.476;2022-12-11T03:50:37;11.20;;;6.20;;
42478;SDS011;28110;47.080;9.476;2022-12-11T03:53:04;13.43;;;6.85;;
42478;SDS011;28110;47.080;9.476;2022-12-11T03:55:31;13.35;;;7.07;;
42478;SDS011;28110;47.080;9.476;2022-12-11T03:58:00;15.13;;;7.03;;
42478;SDS011;28110;47.080;9.476;2022-12-11T04:00:25;12.15;;;6.30;;
42478;SDS011;28110;47.080;9.476;2022-12-11T04:02:51;12.40;;;5.90;;
42478;SDS011;28110;47.080;9.476;2022-12-11T04:05:38;11.77;;;6.80;;
42478;SDS011;28110;47.080;9.476;2022-12-11T04:08:04;12.90;;;6.77;;
42478;SDS011;28110;47.080;9.476;2022-12-11T04:10:30;12.25;;;6.47;;
42478;SDS011;28110;47.080;9.476;2022-12-11T04:12:55;14.93;;;6.40;;
42478;SDS011;28110;47.080;9.476;2022-12-11T04:15:21;13.57;;;7.10;;
42478;SDS011;28110;47.080;9.476;2022-12-11T04:17:47;14.32;;;6.88;;
42478;SDS011;28110;47.080;9.476;2022-12-11T04:20:31;14.33;;;6.77;;
42478;SDS011;28110;47.080;9.476;2022-12-11T04:23:16;12.15;;;5.95;;
42478;SDS011;28110;47.080;9.476;2022-12-11T04:26:14;11.70;;;6.00;;
42478;SDS011;28110;47.080;9.476;2022-12-11T04:28:42;8.57;;;4.45;;
42478;SDS011;28110;47.080;9.476;2022-12-11T04:31:12;12.52;;;5.25;;
42478;SDS011;28110;47.080;9.476;2022-12-11T04:33:39;10.63;;;5.60;;
42478;SDS011;28110;47.080;9.476;2022-12-11T04:36:05;9.50;;;4.50;;
42478;SDS011;28110;47.080;9.476;2022-12-11T04:38:31;11.45;;;5.40;;
42478;SDS011;28110;47.080;9.476;2022-12-11T04:40:57;13.10;;;6.07;;
42478;SDS011;28110;47.080;9.476;2022-12-11T04:43:33;12.00;;;6.47;;
42478;SDS011;28110;47.080;9.476;2022-12-11T04:46:13;12.20;;;6.43;;
42478;SDS011;28110;47.080;9.476;2022-12-11T04:48:48;15.20;;;6.23;;
42478;SDS011;28110;47.080;9.476;2022-12-11T04:51:15;14.25;;;6.75;;
42478;SDS011;28110;47.080;9.476;2022-12-11T04:53:41;12.50;;;6.32;;
42478;SDS011;28110;47.080;9.476;2022-12-11T04:56:08;13.32;;;6.63;;
42478;SDS011;28110;47.080;9.476;2022-12-11T04:58:36;10.77;;;5.47;;
42478;SDS011;28110;47.080;9.476;2022-12-11T05:03:40;10.65;;;5.38;;
42478;SDS011;28110;47.080;9.476;2022-12-11T05:06:07;10.63;;;5.32;;
42478;SDS011;28110;47.080;9.476;2022-12-11T05:08:34;10.25;;;4.78;;
42478;SDS011;28110;47.080;9.476;2022-12-11T05:11:02;9.00;;;4.40;;
42478;SDS011;28110;47.080;9.476;2022-12-11T05:13:30;9.77;;;4.50;;
42478;SDS011;28110;47.080;9.476;2022-12-11T05:15:56;10.15;;;4.57;;
42478;SDS011;28110;47.080;9.476;2022-12-11T05:18:22;9.57;;;4.50;;
42478;SDS011;28110;47.080;9.476;2022-12-11T05:20:55;11.20;;;4.95;;
42478;SDS011;28110;47.080;9.476;2022-12-11T05:23:21;7.57;;;3.20;;
42478;SDS011;28110;47.080;9.476;2022-12-11T05:25:53;11.20;;;4.25;;
42478;SDS011;28110;47.080;9.476;2022-12-11T05:28:20;8.18;;;3.83;;
42478;SDS011;28110;47.080;9.476;2022-12-11T05:30:46;8.23;;;4.40;;
42478;SDS011;28110;47.080;9.476;2022-12-11T05:33:12;8.68;;;4.05;;
42478;SDS011;28110;47.080;9.476;2022-12-11T05:35:38;9.17;;;4.00;;
42478;SDS011;28110;47.080;9.476;2022-12-11T05:38:03;10.80;;;4.60;;
42478;SDS011;28110;47.080;9.476;2022-12-11T05:40:29;8.33;;;3.30;;
42478;SDS011;28110;47.080;9.476;2022-12-11T05:42:54;7.40;;;3.93;;
42478;SDS011;28110;47.080;9.476;2022-12-11T05:45:20;9.80;;;4.15;;
42478;SDS011;28110;47.080;9.476;2022-12-11T05:47:45;9.47;;;4.20;;
42478;SDS011;28110;47.080;9.476;2022-12-11T05:50:11;7.80;;;4.13;;
42478;SDS011;28110;47.080;9.476;2022-12-11T05:52:36;10.50;;;4.65;;
42478;SDS011;28110;47.080;9.476;2022-12-11T05:55:02;8.33;;;3.80;;
42478;SDS011;28110;47.080;9.476;2022-12-11T05:57:28;8.13;;;4.00;;
42478;SDS011;28110;47.080;9.476;2022-12-11T05:59:53;9.75;;;4.72;;
42478;SDS011;28110;47.080;9.476;2022-12-11T06:02:19;8.13;;;4.13;;
42478;SDS011;28110;47.080;9.476;2022-12-11T06:04:44;10.40;;;4.87;;
42478;SDS011;28110;47.080;9.476;2022-12-11T06:07:10;9.38;;;4.70;;
42478;SDS011;28110;47.080;9.476;2022-12-11T06:09:35;10.63;;;4.73;;
42478;SDS011;28110;47.080;9.476;2022-12-11T06:12:01;10.20;;;5.67;;
42478;SDS011;28110;47.080;9.476;2022-12-11T06:14:26;12.70;;;5.90;;
42478;SDS011;28110;47.080;9.476;2022-12-11T06:16:52;12.67;;;5.63;;
42478;SDS011;28110;47.080;9.476;2022-12-11T06:19:17;12.20;;;5.90;;
42478;SDS011;28110;47.080;9.476;2022-12-11T06:21:43;14.10;;;5.72;;
42478;SDS011;28110;47.080;9.476;2022-12-11T06:24:10;13.35;;;5.70;;
42478;SDS011;28110;47.080;9.476;2022-12-11T06:26:35;13.35;;;6.07;;
42478;SDS011;28110;47.080;9.476;2022-12-11T06:29:01;12.00;;;5.70;;
42478;SDS011;28110;47.080;9.476;2022-12-11T06:31:27;11.13;;;5.40;;
42478;SDS011;28110;47.080;9.476;2022-12-11T06:33:52;13.50;;;6.47;;
42478;SDS011;28110;47.080;9.476;2022-12-11T06:36:19;12.85;;;6.18;;
42478;SDS011;28110;47.080;9.476;2022-12-11T06:38:46;9.73;;;4.90;;
42478;SDS011;28110;47.080;9.476;2022-12-11T06:41:12;18.63;;;6.93;;
42478;SDS011;28110;47.080;9.476;2022-12-11T06:43:39;13.23;;;6.65;;
42478;SDS011;28110;47.080;9.476;2022-12-11T06:46:05;13.00;;;6.45;;
42478;SDS011;28110;47.080;9.476;2022-12-11T06:48:33;12.20;;;6.13;;
42478;SDS011;28110;47.080;9.476;2022-12-11T06:50:58;12.93;;;6.30;;
42478;SDS011;28110;47.080;9.476;2022-12-11T06:53:24;13.93;;;6.93;;
42478;SDS011;28110;47.080;9.476;2022-12-11T06:55:49;15.77;;;7.45;;
42478;SDS011;28110;47.080;9.476;2022-12-11T06:58:15;16.60;;;7.93;;
42478;SDS011;28110;47.080;9.476;2022-12-11T07:00:41;14.53;;;7.27;;
42478;SDS011;28110;47.080;9.476;2022-12-11T07:03:06;15.00;;;7.20;;
42478;SDS011;28110;47.080;9.476;2022-12-11T07:05:33;13.82;;;7.20;;
42478;SDS011;28110;47.080;9.476;2022-12-11T07:07:59;13.30;;;6.30;;
42478;SDS011;28110;47.080;9.476;2022-12-11T07:10:25;15.52;;;6.60;;
42478;SDS011;28110;47.080;9.476;2022-12-11T07:12:51;11.23;;;5.60;;
42478;SDS011;28110;47.080;9.476;2022-12-11T07:15:18;11.27;;;5.05;;
42478;SDS011;28110;47.080;9.476;2022-12-11T07:17:44;10.95;;;5.20;;
42478;SDS011;28110;47.080;9.476;2022-12-11T07:20:09;13.07;;;6.20;;
42478;SDS011;28110;47.080;9.476;2022-12-11T07:22:35;13.27;;;6.80;;
42478;SDS011;28110;47.080;9.476;2022-12-11T07:25:00;14.77;;;7.35;;
42478;SDS011;28110;47.080;9.476;2022-12-11T07:27:26;13.83;;;6.67;;
42478;SDS011;28110;47.080;9.476;2022-12-11T07:29:52;15.27;;;7.53;;
42478;SDS011;28110;47.080;9.476;2022-12-11T07:32:19;13.73;;;7.20;;
42478;SDS011;28110;47.080;9.476;2022-12-11T07:34:45;16.02;;;7.30;;
42478;SDS011;28110;47.080;9.476;2022-12-11T07:37:12;12.18;;;6.72;;
42478;SDS011;28110;47.080;9.476;2022-12-11T07:39:37;12.93;;;6.30;;
42478;SDS011;28110;47.080;9.476;2022-12-11T07:42:03;14.37;;;7.10;;
42478;SDS011;28110;47.080;9.476;2022-12-11T07:44:28;18.08;;;7.95;;
42478;SDS011;28110;47.080;9.476;2022-12-11T07:46:54;13.53;;;5.80;;
42478;SDS011;28110;47.080;9.476;2022-12-11T07:49:20;14.35;;;7.07;;
42478;SDS011;28110;47.080;9.476;2022-12-11T07:51:45;13.80;;;6.43;;
42478;SDS011;28110;47.080;9.476;2022-12-11T07:54:11;11.83;;;6.40;;
42478;SDS011;28110;47.080;9.476;2022-12-11T07:56:40;12.38;;;5.85;;
42478;SDS011;28110;47.080;9.476;2022-12-11T07:59:08;13.65;;;6.68;;
42478;SDS011;28110;47.080;9.476;2022-12-11T08:01:34;13.73;;;6.73;;
42478;SDS011;28110;47.080;9.476;2022-12-11T08:04:01;13.05;;;6.00;;
42478;SDS011;28110;47.080;9.476;2022-12-11T08:06:32;13.90;;;5.80;;
42478;SDS011;28110;47.080;9.476;2022-12-11T08:09:00;13.20;;;6.07;;
42478;SDS011;28110;47.080;9.476;2022-12-11T08:11:27;12.30;;;6.38;;
42478;SDS011;28110;47.080;9.476;2022-12-11T08:13:53;12.90;;;6.53;;
42478;SDS011;28110;47.080;9.476;2022-12-11T08:16:19;14.65;;;7.05;;
42478;SDS011;28110;47.080;9.476;2022-12-11T08:18:45;10.43;;;5.05;;
42478;SDS011;28110;47.080;9.476;2022-12-11T08:21:15;13.95;;;6.38;;
42478;SDS011;28110;47.080;9.476;2022-12-11T08:23:42;11.93;;;5.30;;
42478;SDS011;28110;47.080;9.476;2022-12-11T08:26:10;13.30;;;6.15;;
42478;SDS011;28110;47.080;9.476;2022-12-11T08:28:43;12.60;;;6.40;;
42478;SDS011;28110;47.080;9.476;2022-12-11T08:31:10;13.55;;;6.35;;
42478;SDS011;28110;47.080;9.476;2022-12-11T08:33:36;14.57;;;6.27;;
42478;SDS011;28110;47.080;9.476;2022-12-11T08:36:03;16.40;;;8.15;;
42478;SDS011;28110;47.080;9.476;2022-12-11T08:38:33;12.85;;;6.53;;
42478;SDS011;28110;47.080;9.476;2022-12-11T08:41:06;13.88;;;6.55;;
42478;SDS011;28110;47.080;9.476;2022-12-11T08:43:33;10.98;;;5.85;;
42478;SDS011;28110;47.080;9.476;2022-12-11T08:45:59;11.83;;;5.33;;
42478;SDS011;28110;47.080;9.476;2022-12-11T08:48:24;12.50;;;6.07;;
42478;SDS011;28110;47.080;9.476;2022-12-11T08:50:50;13.48;;;6.97;;
42478;SDS011;28110;47.080;9.476;2022-12-11T08:53:15;12.50;;;6.25;;
42478;SDS011;28110;47.080;9.476;2022-12-11T08:55:41;15.07;;;6.43;;
42478;SDS011;28110;47.080;9.476;2022-12-11T08:58:06;12.60;;;6.13;;
42478;SDS011;28110;47.080;9.476;2022-12-11T09:00:32;15.20;;;7.25;;
42478;SDS011;28110;47.080;9.476;2022-12-11T09:02:57;10.67;;;6.07;;
42478;SDS011;28110;47.080;9.476;2022-12-11T09:05:23;13.20;;;6.20;;
42478;SDS011;28110;47.080;9.476;2022-12-11T09:07:48;12.70;;;6.20;;
42478;SDS011;28110;47.080;9.476;2022-12-11T09:10:14;11.17;;;5.87;;
42478;SDS011;28110;47.080;9.476;2022-12-11T09:12:39;13.27;;;6.23;;
42478;SDS011;28110;47.080;9.476;2022-12-11T09:15:05;12.70;;;6.22;;
42478;SDS011;28110;47.080;9.476;2022-12-11T09:17:32;16.03;;;6.37;;
42478;SDS011;28110;47.080;9.476;2022-12-11T09:19:58;13.57;;;6.32;;
42478;SDS011;28110;47.080;9.476;2022-12-11T09:22:24;15.65;;;6.88;;
42478;SDS011;28110;47.080;9.476;2022-12-11T09:24:49;13.40;;;6.55;;
42478;SDS011;28110;47.080;9.476;2022-12-11T09:27:15;12.30;;;6.47;;
42478;SDS011;28110;47.080;9.476;2022-12-11T09:29:41;11.07;;;5.82;;
42478;SDS011;28110;47.080;9.476;2022-12-11T09:32:06;15.43;;;5.93;;
42478;SDS011;28110;47.080;9.476;2022-12-11T09:34:32;11.90;;;6.27;;
42478;SDS011;28110;47.080;9.476;2022-12-11T09:36:57;12.32;;;6.40;;
42478;SDS011;28110;47.080;9.476;2022-12-11T09:39:23;14.03;;;6.77;;
42478;SDS011;28110;47.080;9.476;2022-12-11T09:44:37;13.18;;;6.68;;
42478;SDS011;28110;47.080;9.476;2022-12-11T09:47:44;15.90;;;6.63;;
42478;SDS011;28110;47.080;9.476;2022-12-11T09:50:22;11.82;;;5.78;;
42478;SDS011;28110;47.080;9.476;2022-12-11T09:58:37;12.30;;;5.68;;
42478;SDS011;28110;47.080;9.476;2022-12-11T10:01:28;13.17;;;5.87;;
42478;SDS011;28110;47.080;9.476;2022-12-11T10:06:41;11.82;;;5.47;;
42478;SDS011;28110;47.080;9.476;2022-12-11T10:09:16;10.10;;;5.30;;
42478;SDS011;28110;47.080;9.476;2022-12-11T10:12:05;8.45;;;4.88;;
42478;SDS011;28110;47.080;9.476;2022-12-11T10:17:22;12.98;;;6.68;;
42478;SDS011;28110;47.080;9.476;2022-12-11T10:19:52;13.23;;;6.85;;
42478;SDS011;28110;47.080;9.476;2022-12-11T10:22:21;14.18;;;7.53;;
42478;SDS011;28110;47.080;9.476;2022-12-11T10:24:59;12.75;;;6.75;;
42478;SDS011;28110;47.080;9.476;2022-12-11T10:27:32;13.70;;;6.80;;
42478;SDS011;28110;47.080;9.476;2022-12-11T10:32:50;14.65;;;7.90;;
42478;SDS011;28110;47.080;9.476;2022-12-11T10:35:38;14.88;;;6.95;;
42478;SDS011;28110;47.080;9.476;2022-12-11T10:38:22;14.73;;;7.50;;
42478;SDS011;28110;47.080;9.476;2022-12-11T10:41:09;14.60;;;7.67;;
42478;SDS011;28110;47.080;9.476;2022-12-11T10:43:46;16.38;;;7.82;;
42478;SDS011;28110;47.080;9.476;2022-12-11T10:46:14;17.17;;;8.48;;
42478;SDS011;28110;47.080;9.476;2022-12-11T10:49:00;16.55;;;8.52;;
42478;SDS011;28110;47.080;9.476;2022-12-11T10:53:55;16.53;;;7.87;;
42478;SDS011;28110;47.080;9.476;2022-12-11T10:56:28;14.18;;;7.63;;
42478;SDS011;28110;47.080;9.476;2022-12-11T10:58:56;14.55;;;7.90;;
42478;SDS011;28110;47.080;9.476;2022-12-11T11:01:26;17.90;;;8.90;;
42478;SDS011;28110;47.080;9.476;2022-12-11T11:04:04;16.13;;;8.45;;
42478;SDS011;28110;47.080;9.476;2022-12-11T11:06:37;16.03;;;8.30;;
42478;SDS011;28110;47.080;9.476;2022-12-11T11:09:03;19.30;;;9.25;;
42478;SDS011;28110;47.080;9.476;2022-12-11T11:11:32;19.00;;;8.77;;
42478;SDS011;28110;47.080;9.476;2022-12-11T11:14:13;15.68;;;8.32;;
42478;SDS011;28110;47.080;9.476;2022-12-11T11:16:44;17.17;;;8.30;;
42478;SDS011;28110;47.080;9.476;2022-12-11T11:19:30;18.65;;;9.57;;
42478;SDS011;28110;47.080;9.476;2022-12-11T11:22:04;17.93;;;9.00;;
42478;SDS011;28110;47.080;9.476;2022-12-11T11:24:39;16.30;;;7.65;;
42478;SDS011;28110;47.080;9.476;2022-12-11T11:27:51;14.63;;;7.68;;
42478;SDS011;28110;47.080;9.476;2022-12-11T11:30:02;14.15;;;7.95;;
42478;SDS011;28110;47.080;9.476;2022-12-11T11:32:35;16.60;;;8.38;;
42478;SDS011;28110;47.080;9.476;2022-12-11T11:37:38;12.90;;;6.88;;
42478;SDS011;28110;47.080;9.476;2022-12-11T11:40:07;15.05;;;7.40;;
42478;SDS011;28110;47.080;9.476;2022-12-11T11:43:14;16.17;;;8.30;;
42478;SDS011;28110;47.080;9.476;2022-12-11T11:46:01;14.88;;;7.90;;
42478;SDS011;28110;47.080;9.476;2022-12-11T11:48:43;15.73;;;8.23;;
42478;SDS011;28110;47.080;9.476;2022-12-11T11:51:26;17.95;;;8.95;;
42478;SDS011;28110;47.080;9.476;2022-12-11T11:54:00;14.80;;;7.28;;
42478;SDS011;28110;47.080;9.476;2022-12-11T11:56:34;16.13;;;9.20;;
42478;SDS011;28110;47.080;9.476;2022-12-11T12:01:49;16.83;;;8.27;;
42478;SDS011;28110;47.080;9.476;2022-12-11T12:04:17;14.02;;;7.07;;
42478;SDS011;28110;47.080;9.476;2022-12-11T12:09:56;14.90;;;6.50;;
42478;SDS011;28110;47.080;9.476;2022-12-11T12:15:12;12.25;;;5.90;;
42478;SDS011;28110;47.080;9.476;2022-12-11T12:17:49;13.38;;;6.97;;
42478;SDS011;28110;47.080;9.476;2022-12-11T12:23:15;16.77;;;6.33;;
42478;SDS011;28110;47.080;9.476;2022-12-11T12:25:50;13.63;;;6.53;;
42478;SDS011;28110;47.080;9.476;2022-12-11T12:36:45;12.63;;;6.13;;
42478;SDS011;28110;47.080;9.476;2022-12-11T12:42:14;13.18;;;5.10;;
42478;SDS011;28110;47.080;9.476;2022-12-11T12:47:31;9.70;;;4.43;;
42478;SDS011;28110;47.080;9.476;2022-12-11T12:49:59;9.50;;;4.97;;
42478;SDS011;28110;47.080;9.476;2022-12-11T12:52:30;10.82;;;4.97;;
42478;SDS011;28110;47.080;9.476;2022-12-11T12:54:59;9.73;;;5.20;;
42478;SDS011;28110;47.080;9.476;2022-12-11T12:57:38;8.90;;;5.13;;
42478;SDS011;28110;47.080;9.476;2022-12-11T13:00:09;14.95;;;6.60;;
42478;SDS011;28110;47.080;9.476;2022-12-11T13:02:36;11.83;;;6.47;;
42478;SDS011;28110;47.080;9.476;2022-12-11T13:05:21;16.98;;;8.18;;
42478;SDS011;28110;47.080;9.476;2022-12-11T13:07:54;14.98;;;6.43;;
42478;SDS011;28110;47.080;9.476;2022-12-11T13:10:30;11.95;;;7.10;;
42478;SDS011;28110;47.080;9.476;2022-12-11T13:13:00;13.43;;;6.60;;
42478;SDS011;28110;47.080;9.476;2022-12-11T13:15:38;14.83;;;7.13;;
42478;SDS011;28110;47.080;9.476;2022-12-11T13:20:55;12.43;;;6.82;;
42478;SDS011;28110;47.080;9.476;2022-12-11T13:23:27;11.90;;;6.97;;
42478;SDS011;28110;47.080;9.476;2022-12-11T13:25:58;13.50;;;7.47;;
42478;SDS011;28110;47.080;9.476;2022-12-11T13:28:27;12.15;;;6.75;;
42478;SDS011;28110;47.080;9.476;2022-12-11T13:31:43;14.75;;;7.88;;
42478;SDS011;28110;47.080;9.476;2022-12-11T13:33:45;14.27;;;7.70;;
42478;SDS011;28110;47.080;9.476;2022-12-11T13:38:42;15.43;;;8.48;;
42478;SDS011;28110;47.080;9.476;2022-12-11T13:41:11;13.03;;;7.60;;
42478;SDS011;28110;47.080;9.476;2022-12-11T13:43:37;15.68;;;7.70;;
42478;SDS011;28110;47.080;9.476;2022-12-11T13:46:07;16.52;;;8.35;;
42478;SDS011;28110;47.080;9.476;2022-12-11T13:48:48;13.30;;;7.35;;
42478;SDS011;28110;47.080;9.476;2022-12-11T13:51:22;16.02;;;8.70;;
42478;SDS011;28110;47.080;9.476;2022-12-11T13:54:00;14.87;;;7.77;;
42478;SDS011;28110;47.080;9.476;2022-12-11T13:56:30;16.42;;;8.52;;
42478;SDS011;28110;47.080;9.476;2022-12-11T13:58:56;13.90;;;6.47;;
42478;SDS011;28110;47.080;9.476;2022-12-11T14:01:30;15.17;;;7.17;;
42478;SDS011;28110;47.080;9.476;2022-12-11T14:06:26;13.88;;;6.85;;
42478;SDS011;28110;47.080;9.476;2022-12-11T14:08:54;12.55;;;6.75;;
42478;SDS011;28110;47.080;9.476;2022-12-11T14:11:27;12.43;;;7.03;;
42478;SDS011;28110;47.080;9.476;2022-12-11T14:13:58;13.07;;;6.57;;
42478;SDS011;28110;47.080;9.476;2022-12-11T14:16:25;11.45;;;6.05;;
42478;SDS011;28110;47.080;9.476;2022-12-11T14:18:53;13.20;;;6.72;;
42478;SDS011;28110;47.080;9.476;2022-12-11T14:21:23;13.05;;;6.32;;
42478;SDS011;28110;47.080;9.476;2022-12-11T14:23:50;12.73;;;6.22;;
42478;SDS011;28110;47.080;9.476;2022-12-11T14:26:22;12.20;;;6.53;;
42478;SDS011;28110;47.080;9.476;2022-12-11T14:28:50;13.95;;;6.30;;
42478;SDS011;28110;47.080;9.476;2022-12-11T14:31:17;12.98;;;6.40;;
42478;SDS011;28110;47.080;9.476;2022-12-11T14:33:57;14.02;;;6.53;;
42478;SDS011;28110;47.080;9.476;2022-12-11T14:36:26;14.00;;;6.88;;
42478;SDS011;28110;47.080;9.476;2022-12-11T14:39:01;14.60;;;7.27;;
42478;SDS011;28110;47.080;9.476;2022-12-11T14:41:39;12.93;;;6.40;;
42478;SDS011;28110;47.080;9.476;2022-12-11T14:44:06;12.60;;;6.47;;
42478;SDS011;28110;47.080;9.476;2022-12-11T14:46:45;11.48;;;5.93;;
42478;SDS011;28110;47.080;9.476;2022-12-11T14:49:16;11.90;;;6.30;;
42478;SDS011;28110;47.080;9.476;2022-12-11T14:51:46;10.17;;;6.03;;
42478;SDS011;28110;47.080;9.476;2022-12-11T14:54:15;10.68;;;5.10;;
42478;SDS011;28110;47.080;9.476;2022-12-11T14:56:48;11.10;;;5.75;;
42478;SDS011;28110;47.080;9.476;2022-12-11T14:59:18;10.63;;;5.07;;
42478;SDS011;28110;47.080;9.476;2022-12-11T15:01:55;11.27;;;5.47;;
42478;SDS011;28110;47.080;9.476;2022-12-11T15:04:28;10.75;;;5.07;;
42478;SDS011;28110;47.080;9.476;2022-12-11T15:06:55;12.45;;;5.30;;
42478;SDS011;28110;47.080;9.476;2022-12-11T15:09:29;11.75;;;6.57;;
42478;SDS011;28110;47.080;9.476;2022-12-11T15:12:15;10.53;;;5.60;;
42478;SDS011;28110;47.080;9.476;2022-12-11T15:14:52;12.90;;;5.03;;
42478;SDS011;28110;47.080;9.476;2022-12-11T15:17:21;9.52;;;5.25;;
42478;SDS011;28110;47.080;9.476;2022-12-11T15:19:50;9.05;;;5.07;;
42478;SDS011;28110;47.080;9.476;2022-12-11T15:22:18;10.30;;;4.45;;
42478;SDS011;28110;47.080;9.476;2022-12-11T15:24:50;8.63;;;4.63;;
42478;SDS011;28110;47.080;9.476;2022-12-11T15:29:53;7.90;;;4.72;;
42478;SDS011;28110;47.080;9.476;2022-12-11T15:32:19;10.53;;;5.50;;
42478;SDS011;28110;47.080;9.476;2022-12-11T15:34:50;12.35;;;6.22;;
42478;SDS011;28110;47.080;9.476;2022-12-11T15:37:24;15.27;;;7.63;;
42478;SDS011;28110;47.080;9.476;2022-12-11T15:39:52;11.95;;;5.97;;
42478;SDS011;28110;47.080;9.476;2022-12-11T15:42:34;13.00;;;6.13;;
42478;SDS011;28110;47.080;9.476;2022-12-11T15:45:07;11.50;;;5.30;;
42478;SDS011;28110;47.080;9.476;2022-12-11T15:47:41;9.05;;;5.00;;
42478;SDS011;28110;47.080;9.476;2022-12-11T15:50:11;10.43;;;5.32;;
42478;SDS011;28110;47.080;9.476;2022-12-11T15:52:41;10.63;;;5.68;;
42478;SDS011;28110;47.080;9.476;2022-12-11T15:55:06;11.00;;;6.07;;
42478;SDS011;28110;47.080;9.476;2022-12-11T15:57:32;11.60;;;5.70;;
42478;SDS011;28110;47.080;9.476;2022-12-11T15:59:58;13.57;;;5.88;;
42478;SDS011;28110;47.080;9.476;2022-12-11T16:02:24;14.57;;;8.50;;
42478;SDS011;28110;47.080;9.476;2022-12-11T16:04:51;15.98;;;8.07;;
42478;SDS011;28110;47.080;9.476;2022-12-11T16:07:19;17.02;;;8.52;;
42478;SDS011;28110;47.080;9.476;2022-12-11T16:09:47;15.40;;;7.90;;